Time;durP1;ratioP1;P1;durP2;ratioP2;P2;SDS_P1;SDS_P2;PMS_P1;PMS_P2;Temp;Humidity;BMP_temperature;BMP_pressure;BME280_temperature;BME280_humidity;BME280_pressure;Samples;Min_cycle;Max_cycle;Signal;HPM_P1;HPM_P2
2022/01/13 00:01:46;;;;;;;;;12.00;9.00;;;;;2.40;82.45;102278.91;5096218;28;8839;-59
2022/01/13 00:04:15;;;;;;;;;13.00;11.00;;;;;2.41;82.43;102278.00;5094448;28;8852;-59
2022/01/13 00:06:43;;;;;;;;;11.60;9.60;;;;;2.42;82.94;102278.88;5100192;28;8850;-59
2022/01/13 00:09:10;;;;;;;;;11.20;10.20;;;;;2.43;82.78;102286.75;5098748;28;9312;-59
2022/01/13 00:11:38;;;;;;;;;6.00;3.80;;;;;2.45;83.04;102292.00;5083591;28;8834;-59
2022/01/13 00:17:09;;;;;;;;;9.40;8.60;;;;;2.48;82.86;102298.09;5081487;28;8852;-59
2022/01/13 00:19:49;;;;;;;;;12.00;9.20;;;;;2.48;82.79;102300.72;5078370;28;9512;-59
2022/01/13 00:22:24;;;;;;;;;6.40;4.80;;;;;2.48;82.45;102305.97;5054822;28;8898;-59
2022/01/13 00:24:56;;;;;;;;;9.00;8.60;;;;;2.48;82.92;102307.72;5058360;28;8893;-59
2022/01/13 00:27:29;;;;;;;;;4.00;3.20;;;;;2.46;82.97;102302.50;5058206;28;9403;-59
2022/01/13 00:29:59;;;;;;;;;6.00;5.60;;;;;2.43;82.67;102297.25;5061018;28;9086;-59
2022/01/13 00:32:30;;;;;;;;;20.60;12.60;;;;;2.40;82.57;102291.16;5097310;28;8828;-59
2022/01/13 00:34:58;;;;;;;;;9.00;7.80;;;;;2.35;82.85;102293.81;5098819;28;8855;-59
2022/01/13 00:37:26;;;;;;;;;10.20;9.20;;;;;2.32;82.97;102293.88;5100137;28;9103;-59
2022/01/13 00:39:54;;;;;;;;;12.60;12.00;;;;;2.31;82.96;102296.50;5098391;28;9485;-59
2022/01/13 00:42:23;;;;;;;;;13.00;10.40;;;;;2.28;83.23;102291.28;5080187;28;9056;-59
2022/01/13 00:44:50;;;;;;;;;10.60;10.60;;;;;2.25;82.77;102294.81;5077160;28;8860;-59
2022/01/13 00:47:20;;;;;;;;;7.80;7.40;;;;;2.22;82.47;102292.22;5079639;28;8838;-59
2022/01/13 00:49:47;;;;;;;;;14.80;12.40;;;;;2.19;82.91;102291.34;5076777;28;8854;-59
2022/01/13 00:52:16;;;;;;;;;9.40;7.00;;;;;2.15;83.65;102294.88;5098611;28;8851;-59
2022/01/13 00:54:44;;;;;;;;;6.60;6.00;;;;;2.11;83.52;102296.66;5099587;28;8847;-59
2022/01/13 00:57:12;;;;;;;;;7.80;7.00;;;;;2.08;83.01;102290.56;5101195;28;8886;-59
2022/01/13 00:59:39;;;;;;;;;7.00;6.80;;;;;2.06;83.47;102297.59;5102514;28;8832;-59
2022/01/13 01:02:07;;;;;;;;;10.60;9.20;;;;;2.05;83.51;102299.31;5077581;28;9517;-59
2022/01/13 01:04:35;;;;;;;;;14.00;10.40;;;;;2.03;83.84;102298.47;5077459;28;8849;-59
2022/01/13 01:07:03;;;;;;;;;15.40;11.80;;;;;2.01;83.27;102305.50;5076520;28;9573;-59
2022/01/13 01:09:39;;;;;;;;;8.00;7.60;;;;;1.99;83.55;102304.63;5074945;28;8845;-59
2022/01/13 01:12:06;;;;;;;;;11.40;8.80;;;;;1.98;83.20;102302.88;5093881;28;8912;-59
2022/01/13 01:14:37;;;;;;;;;9.00;7.00;;;;;1.98;83.88;102312.53;5097245;28;8847;-59
2022/01/13 01:17:04;;;;;;;;;8.20;6.40;;;;;1.98;83.62;102305.50;5098195;28;9134;-59
2022/01/13 01:19:32;;;;;;;;;12.60;12.60;;;;;1.98;82.97;102300.25;5098649;28;8876;-59
2022/01/13 01:25:06;;;;;;;;;9.00;6.80;;;;;1.99;83.69;102306.38;4977895;28;8872;-59
2022/01/13 01:27:38;;;;;;;;;3.00;0.80;;;;;1.98;83.09;102305.50;5063489;28;9597;-59
2022/01/13 01:30:10;;;;;;;;;7.20;6.60;;;;;1.96;83.55;102298.53;5076734;28;8853;-59
2022/01/13 01:32:39;;;;;;;;;9.20;8.20;;;;;1.94;83.48;102316.94;5100203;28;8847;-59
2022/01/13 01:35:13;;;;;;;;;10.40;9.20;;;;;1.91;83.67;102314.31;5100692;28;8836;-59
2022/01/13 01:37:41;;;;;;;;;11.20;10.40;;;;;1.88;83.64;102316.97;5098296;28;8839;-59
2022/01/13 01:40:08;;;;;;;;;11.20;9.80;;;;;1.84;83.48;102315.25;5095283;28;9028;-59
2022/01/13 01:42:37;;;;;;;;;8.40;8.40;;;;;1.81;83.60;102315.25;5080041;28;8867;-59
2022/01/13 01:45:04;;;;;;;;;10.60;8.80;;;;;1.78;83.77;102320.53;5074723;28;8853;-59
2022/01/13 01:47:32;;;;;;;;;11.80;11.80;;;;;1.74;84.16;102331.94;5078534;28;9496;-59
2022/01/13 01:50:01;;;;;;;;;6.40;4.00;;;;;1.72;83.81;102320.56;5080058;28;8873;-59
2022/01/13 01:52:29;;;;;;;;;8.60;7.00;;;;;1.70;83.64;102321.44;5098867;28;8851;-59
2022/01/13 01:54:56;;;;;;;;;7.80;7.00;;;;;1.68;83.87;102318.81;5099372;28;8836;-59
2022/01/13 01:57:24;;;;;;;;;8.60;8.40;;;;;1.69;83.54;102319.72;5090903;28;8996;-59
2022/01/13 01:59:53;;;;;;;;;8.60;7.80;;;;;1.67;83.66;102322.34;5076278;28;8992;-59
2022/01/13 02:02:21;;;;;;;;;6.60;6.60;;;;;1.66;83.98;102320.59;5075140;28;8892;-59
2022/01/13 02:04:49;;;;;;;;;8.20;5.60;;;;;1.62;83.88;102318.88;5079249;28;8934;-59
2022/01/13 02:07:17;;;;;;;;;8.60;7.80;;;;;1.59;84.37;102316.25;5079421;28;8843;-59
2022/01/13 02:09:50;;;;;;;;;9.00;8.20;;;;;1.57;83.77;102320.66;5096298;28;8867;-59
2022/01/13 02:12:27;;;;;;;;;2.40;1.00;;;;;1.60;83.50;102315.38;5098953;28;8997;-59
2022/01/13 02:14:59;;;;;;;;;6.00;4.00;;;;;1.60;83.94;102304.88;5098052;28;9583;-59
2022/01/13 02:17:29;;;;;;;;;8.00;6.60;;;;;1.61;83.66;102309.22;5088328;28;8842;-59
2022/01/13 02:19:56;;;;;;;;;6.20;6.20;;;;;1.62;83.76;102308.38;5077267;28;8878;-59
2022/01/13 02:22:24;;;;;;;;;9.80;6.60;;;;;1.62;84.30;102300.50;5079246;28;8869;-59
2022/01/13 02:24:52;;;;;;;;;13.40;12.00;;;;;1.61;83.61;102298.72;5077710;28;8968;-59
2022/01/13 02:27:20;;;;;;;;;5.20;4.80;;;;;1.59;83.40;102299.66;5075850;28;8852;-59
2022/01/13 02:29:47;;;;;;;;;10.80;7.00;;;;;1.57;83.33;102302.28;5078951;28;8857;-59
2022/01/13 02:32:16;;;;;;;;;10.40;10.20;;;;;1.55;83.72;102306.66;5091780;28;8832;-59
2022/01/13 02:34:44;;;;;;;;;12.60;9.60;;;;;1.54;84.01;102310.19;5099975;28;8839;-59
2022/01/13 02:37:18;;;;;;;;;22.80;19.00;;;;;1.53;84.08;102308.41;5111783;27;13381;-60
2022/01/13 02:39:46;;;;;;;;;18.00;15.60;;;;;1.57;83.49;102298.75;5095532;28;8855;-60
2022/01/13 02:42:14;;;;;;;;;9.20;9.20;;;;;1.57;83.36;102298.75;5107406;27;9921;-60
2022/01/13 02:44:49;;;;;;;;;11.60;10.80;;;;;1.55;83.85;102290.91;5117252;27;8841;-59
2022/01/13 02:47:36;;;;;;;;;6.40;4.80;;;;;1.50;83.85;102295.31;5113909;27;8910;-60
2022/01/13 02:50:06;;;;;;;;;6.80;6.80;;;;;1.43;83.80;102290.97;5119012;27;10065;-60
2022/01/13 02:52:34;;;;;;;;;7.00;6.00;;;;;1.38;83.85;102286.63;5100662;28;8844;-60
2022/01/13 02:55:02;;;;;;;;;7.20;7.20;;;;;1.31;83.93;102285.78;5097876;28;8836;-60
2022/01/13 02:57:30;;;;;;;;;9.20;9.20;;;;;1.27;84.24;102286.69;5095077;28;8867;-60
2022/01/13 02:59:58;;;;;;;;;11.80;11.80;;;;;1.21;84.23;102284.06;5096014;28;8839;-60
2022/01/13 03:02:30;;;;;;;;;12.80;12.40;;;;;1.16;83.88;102283.22;5108003;27;8817;-60
2022/01/13 03:04:58;;;;;;;;;7.20;6.80;;;;;1.10;84.39;102285.00;5118655;27;8841;-60
2022/01/13 03:07:26;;;;;;;;;5.60;5.60;;;;;1.06;84.51;102284.13;5114389;27;8859;-60
2022/01/13 03:09:54;;;;;;;;;9.40;7.00;;;;;1.03;84.47;102284.16;5115372;27;9135;-60
2022/01/13 03:12:24;;;;;;;;;7.00;7.00;;;;;0.99;84.49;102290.28;5104753;28;9849;-60
2022/01/13 03:14:53;;;;;;;;;9.00;7.80;;;;;0.97;84.05;102288.53;5094536;28;8843;-59
2022/01/13 03:17:20;;;;;;;;;8.40;8.20;;;;;0.94;84.84;102293.81;5093455;28;8866;-60
2022/01/13 03:19:48;;;;;;;;;3.40;3.40;;;;;0.90;84.58;102287.69;5095984;28;9034;-59
2022/01/13 03:22:16;;;;;;;;;10.00;8.40;;;;;0.88;84.71;102293.81;5108006;27;8833;-59
2022/01/13 03:24:44;;;;;;;;;8.60;6.80;;;;;0.85;84.74;102296.44;5117333;27;8855;-60
2022/01/13 03:27:21;;;;;;;;;3.60;3.60;;;;;0.83;84.75;102290.34;5114547;27;8849;-59
2022/01/13 03:29:48;;;;;;;;;6.00;5.60;;;;;0.81;85.16;102298.22;5114069;27;8849;-59
2022/01/13 03:32:17;;;;;;;;;9.00;7.00;;;;;0.81;84.67;102294.69;5103844;27;8974;-60
2022/01/13 03:34:45;;;;;;;;;8.20;7.00;;;;;0.80;84.46;102298.19;5094607;28;8848;-60
2022/01/13 03:37:12;;;;;;;;;10.40;10.40;;;;;0.80;84.33;102299.09;5093399;28;8857;-60
2022/01/13 03:39:40;;;;;;;;;12.20;11.20;;;;;0.83;84.31;102295.59;5092875;28;8891;-60
2022/01/13 03:42:08;;;;;;;;;4.80;4.80;;;;;0.87;85.02;102292.97;5102110;27;8848;-60
2022/01/13 03:44:36;;;;;;;;;6.00;4.40;;;;;0.91;85.01;102289.44;5116204;27;8844;-60
2022/01/13 03:47:04;;;;;;;;;5.60;4.00;;;;;0.94;84.29;102289.44;5106109;28;8835;-60
2022/01/13 03:49:32;;;;;;;;;8.40;7.80;;;;;0.99;84.88;102292.91;5098867;28;8839;-60
2022/01/13 03:52:03;;;;;;;;;8.20;8.20;;;;;1.04;84.27;102279.75;5091711;28;8842;-60
2022/01/13 03:54:31;;;;;;;;;8.60;7.40;;;;;1.08;83.66;102278.91;5081872;28;8861;-60
2022/01/13 03:56:59;;;;;;;;;10.20;7.80;;;;;1.12;84.02;102273.63;5081899;28;8873;-60
2022/01/13 03:59:31;;;;;;;;;7.40;6.40;;;;;1.15;84.56;102273.59;5082654;28;8842;-60
2022/01/13 04:01:59;;;;;;;;;8.00;7.40;;;;;1.17;83.75;102277.13;5087323;28;8857;-60
2022/01/13 04:04:27;;;;;;;;;7.80;6.20;;;;;1.19;84.50;102277.97;5102069;28;9206;-60
2022/01/13 04:06:55;;;;;;;;;9.40;7.40;;;;;1.21;84.32;102288.47;5102635;28;8868;-60
2022/01/13 04:09:22;;;;;;;;;9.60;8.20;;;;;1.25;83.67;102284.94;5101237;28;8836;-60
2022/01/13 04:11:50;;;;;;;;;9.20;8.20;;;;;1.28;84.00;102283.16;5094345;28;8838;-60
2022/01/13 04:14:27;;;;;;;;;3.60;3.60;;;;;1.33;83.87;102272.66;5081863;28;8845;-60
2022/01/13 04:16:54;;;;;;;;;10.80;10.00;;;;;1.39;84.14;102270.00;5080953;28;8931;-60
2022/01/13 04:19:22;;;;;;;;;6.80;6.00;;;;;1.44;83.61;102268.25;5081803;28;8865;-60
2022/01/13 04:21:50;;;;;;;;;8.20;8.20;;;;;1.50;83.71;102260.31;5081903;28;8852;-60
2022/01/13 04:24:17;;;;;;;;;10.20;10.20;;;;;1.55;83.61;102263.78;5102781;28;8982;-60
2022/01/13 04:26:45;;;;;;;;;17.80;12.60;;;;;1.58;83.33;102251.50;5102125;28;9462;-60
2022/01/13 04:29:30;;;;;;;;;7.40;7.40;;;;;1.64;83.29;102254.09;5103455;28;8855;-60
2022/01/13 04:31:58;;;;;;;;;3.80;3.00;;;;;1.70;83.66;102250.56;5092244;28;8964;-60
2022/01/13 04:34:26;;;;;;;;;4.00;3.60;;;;;1.74;83.05;102247.03;5078821;28;8857;-60
2022/01/13 04:36:54;;;;;;;;;10.60;7.80;;;;;1.77;83.03;102242.66;5080675;28;8858;-60
2022/01/13 04:39:22;;;;;;;;;12.40;10.20;;;;;1.80;83.19;102242.63;5080166;28;8985;-60
2022/01/13 04:41:49;;;;;;;;;11.60;9.40;;;;;1.83;83.44;102244.34;5082275;28;9265;-60
2022/01/13 04:44:18;;;;;;;;;8.40;5.40;;;;;1.86;82.56;102250.44;5099298;28;8850;-60
2022/01/13 04:46:46;;;;;;;;;4.60;3.80;;;;;1.90;83.15;102246.91;5099594;28;8902;-60
2022/01/13 04:49:14;;;;;;;;;7.20;6.40;;;;;1.92;83.52;102249.53;5097756;28;8851;-60
2022/01/13 04:51:42;;;;;;;;;14.60;12.20;;;;;1.95;82.79;102250.38;5093664;28;9905;-60
2022/01/13 04:54:10;;;;;;;;;11.20;9.40;;;;;1.97;82.81;102242.50;5079504;28;8830;-60
2022/01/13 04:56:42;;;;;;;;;9.60;8.60;;;;;1.98;82.99;102242.47;5080371;28;8884;-60
2022/01/13 04:59:10;;;;;;;;;13.00;12.80;;;;;2.01;83.02;102242.44;5078786;28;8846;-60
2022/01/13 05:01:37;;;;;;;;;16.80;14.60;;;;;2.03;82.91;102248.56;5081824;28;8908;-60
2022/01/13 05:04:06;;;;;;;;;13.80;10.80;;;;;2.06;83.21;102245.03;5100710;28;8839;-60
2022/01/13 05:06:33;;;;;;;;;15.00;9.60;;;;;2.06;83.16;102240.63;5099714;28;8860;-60
2022/01/13 05:09:01;;;;;;;;;17.80;12.60;;;;;2.07;82.84;102245.03;5097259;28;8856;-60
2022/01/13 05:11:28;;;;;;;;;19.60;15.60;;;;;2.08;83.09;102254.66;5097221;28;8851;-60
2022/01/13 05:13:56;;;;;;;;;9.80;9.00;;;;;2.09;83.09;102245.00;5079163;28;9047;-60
2022/01/13 05:16:29;;;;;;;;;9.40;7.20;;;;;2.08;83.33;102245.88;5076308;28;8830;-60
2022/01/13 05:19:10;;;;;;;;;7.40;6.80;;;;;2.06;82.84;102245.91;5077649;28;8845;-60
2022/01/13 05:21:55;;;;;;;;;12.40;9.60;;;;;2.03;83.25;102240.69;5081505;28;8835;-60
2022/01/13 05:24:23;;;;;;;;;11.20;9.20;;;;;1.96;83.37;102240.75;5097705;28;8847;-60
2022/01/13 05:26:51;;;;;;;;;6.80;6.40;;;;;1.88;83.44;102227.66;5100168;28;8824;-60
2022/01/13 05:29:20;;;;;;;;;12.20;10.80;;;;;1.82;83.28;102217.19;5092142;28;8859;-61
2022/01/13 05:31:48;;;;;;;;;13.40;12.60;;;;;1.76;83.42;102209.38;5091468;28;8830;-60
2022/01/13 05:34:16;;;;;;;;;20.60;15.00;;;;;1.70;83.54;102198.94;5076119;28;8834;-60
2022/01/13 05:37:04;;;;;;;;;9.00;7.80;;;;;1.66;83.71;102205.06;5072409;28;8869;-60
2022/01/13 05:39:31;;;;;;;;;6.20;3.00;;;;;1.60;83.69;102205.13;5075360;28;9000;-60
2022/01/13 05:41:59;;;;;;;;;12.40;10.80;;;;;1.56;83.56;102206.03;5081793;28;8824;-60
2022/01/13 05:44:27;;;;;;;;;4.80;3.80;;;;;1.52;84.00;102206.91;5094291;28;8832;-60
2022/01/13 05:46:55;;;;;;;;;10.40;9.40;;;;;1.49;84.95;102208.69;5093945;28;8852;-60
2022/01/13 05:49:23;;;;;;;;;4.80;4.80;;;;;1.47;84.07;102213.09;5090475;28;8858;-60
2022/01/13 05:51:50;;;;;;;;;8.60;8.60;;;;;1.43;84.20;102209.63;5067181;28;8854;-60
2022/01/13 05:54:18;;;;;;;;;7.40;6.80;;;;;1.40;84.31;102206.13;5073664;28;9933;-60
2022/01/13 05:56:46;;;;;;;;;10.00;7.40;;;;;1.37;84.05;102214.03;5069482;28;8889;-60
2022/01/13 05:59:13;;;;;;;;;12.40;11.00;;;;;1.34;84.82;102219.28;5075282;28;8996;-60
2022/01/13 06:01:41;;;;;;;;;11.40;9.60;;;;;1.30;84.77;102226.31;5090701;28;9262;-60
2022/01/13 06:04:09;;;;;;;;;10.00;9.20;;;;;1.26;84.92;102224.59;5091694;28;8832;-60
2022/01/13 06:06:37;;;;;;;;;8.20;7.60;;;;;1.26;84.72;102229.84;5089671;28;8885;-59
2022/01/13 06:09:05;;;;;;;;;9.20;8.60;;;;;1.24;85.18;102231.59;5083976;28;8853;-60
2022/01/13 06:11:38;;;;;;;;;17.20;10.40;;;;;1.21;84.83;102231.59;5086629;28;8864;-60
2022/01/13 06:14:05;;;;;;;;;9.60;6.60;;;;;1.20;84.46;102250.84;5087600;28;9587;-60
2022/01/13 06:16:33;;;;;;;;;7.80;6.40;;;;;1.18;85.04;102247.38;5090074;28;8864;-60
2022/01/13 06:19:01;;;;;;;;;9.40;8.60;;;;;1.16;84.89;102243.88;5083411;28;8851;-60
2022/01/13 06:21:29;;;;;;;;;10.80;7.80;;;;;1.13;84.87;102233.41;5090807;28;8847;-60
2022/01/13 06:23:57;;;;;;;;;9.00;6.00;;;;;1.12;85.04;102241.25;5084746;28;8870;-61
2022/01/13 06:26:24;;;;;;;;;12.00;9.80;;;;;1.14;84.46;102237.75;5083227;28;9195;-60
2022/01/13 06:28:52;;;;;;;;;12.60;8.40;;;;;1.16;84.42;102236.00;5084915;28;9093;-60
2022/01/13 06:31:20;;;;;;;;;14.60;9.80;;;;;1.17;84.42;102240.38;5081218;28;8885;-60
2022/01/13 06:33:48;;;;;;;;;1.00;1.00;;;;;1.17;84.71;102224.66;5074964;28;8844;-60
2022/01/13 06:36:16;;;;;;;;;7.40;6.00;;;;;1.16;84.86;102222.88;5083289;28;8894;-59
2022/01/13 06:38:48;;;;;;;;;7.80;7.80;;;;;1.16;84.83;102220.25;5081266;28;8906;-59
2022/01/13 06:41:16;;;;;;;;;15.80;7.80;;;;;1.16;84.49;102215.00;5077177;28;8839;-59
2022/01/13 06:43:44;;;;;;;;;7.00;6.60;;;;;1.17;84.48;102214.16;5072404;28;9172;-60
2022/01/13 06:46:12;;;;;;;;;4.00;3.60;;;;;1.17;84.64;102213.25;5089189;28;8851;-60
2022/01/13 06:48:40;;;;;;;;;6.80;6.00;;;;;1.15;84.88;102215.88;5077525;28;8843;-60
2022/01/13 06:51:07;;;;;;;;;11.20;10.40;;;;;1.14;84.07;102222.03;5076943;28;8956;-60
2022/01/13 06:53:35;;;;;;;;;4.40;4.40;;;;;1.12;85.22;102220.28;5079499;28;8852;-60
2022/01/13 06:56:03;;;;;;;;;8.40;6.80;;;;;1.10;84.91;102227.28;5074872;28;8868;-60
2022/01/13 06:58:31;;;;;;;;;8.40;5.80;;;;;1.07;84.45;102222.94;5074664;28;8848;-60
2022/01/13 07:00:58;;;;;;;;;7.00;7.00;;;;;1.04;84.44;102216.81;5076119;28;8855;-60
2022/01/13 07:03:26;;;;;;;;;5.20;4.00;;;;;0.98;85.11;102217.72;5067913;28;8847;-60
2022/01/13 07:05:54;;;;;;;;;5.60;5.20;;;;;0.96;85.08;102222.13;5070472;28;9222;-60
2022/01/13 07:08:22;;;;;;;;;6.00;4.00;;;;;0.93;84.92;102216.00;5079452;28;8859;-60
2022/01/13 07:10:50;;;;;;;;;8.80;7.20;;;;;0.91;84.85;102218.63;5072897;28;8835;-60
2022/01/13 07:13:17;;;;;;;;;8.60;6.80;;;;;0.88;84.81;102226.53;5080753;28;9176;-60
2022/01/13 07:15:45;;;;;;;;;3.40;3.00;;;;;0.86;85.57;102227.41;5076320;28;9625;-60
2022/01/13 07:18:13;;;;;;;;;2.40;1.60;;;;;0.82;84.79;102228.28;5076483;28;8955;-60
2022/01/13 07:20:42;;;;;;;;;8.40;8.40;;;;;0.79;85.19;102230.91;5076340;28;9215;-60
2022/01/13 07:23:10;;;;;;;;;8.40;6.80;;;;;0.76;85.34;102246.66;5080293;28;8858;-60
2022/01/13 07:25:38;;;;;;;;;4.40;2.60;;;;;0.74;85.08;102245.78;5088977;28;8840;-60
2022/01/13 07:28:06;;;;;;;;;7.40;6.20;;;;;0.72;84.83;102245.81;5080046;28;8871;-60
2022/01/13 07:30:34;;;;;;;;;8.60;7.00;;;;;0.70;85.09;102251.94;5083125;28;8863;-60
2022/01/13 07:33:02;;;;;;;;;5.40;4.80;;;;;0.70;85.21;102254.53;5081633;28;8851;-60
2022/01/13 07:35:30;;;;;;;;;6.80;6.80;;;;;0.71;85.51;102259.75;5082331;28;8886;-60
2022/01/13 07:37:58;;;;;;;;;11.20;9.00;;;;;0.71;84.89;102251.91;5079470;28;9166;-60
2022/01/13 07:40:26;;;;;;;;;8.20;7.00;;;;;0.71;85.18;102261.53;5074377;28;9158;-60
2022/01/13 07:42:55;;;;;;;;;9.00;8.80;;;;;0.71;85.03;102261.53;5070431;28;8889;-59
2022/01/13 07:45:23;;;;;;;;;5.40;5.00;;;;;0.71;85.38;102265.00;5077075;28;9105;-60
2022/01/13 07:47:51;;;;;;;;;9.40;9.00;;;;;0.73;85.05;102263.28;5080772;28;8840;-59
2022/01/13 07:50:19;;;;;;;;;3.00;3.00;;;;;0.75;85.13;102264.13;5072280;28;9134;-59
2022/01/13 07:52:46;;;;;;;;;11.20;7.40;;;;;0.78;84.97;102265.88;5073716;28;8832;-59
2022/01/13 07:55:14;;;;;;;;;3.60;3.00;;;;;0.80;85.22;102265.00;5083388;28;8968;-59
2022/01/13 07:57:42;;;;;;;;;6.80;6.40;;;;;0.83;85.15;102269.38;5075847;28;8870;-59
2022/01/13 08:00:10;;;;;;;;;8.60;7.40;;;;;0.85;85.30;102268.47;5082376;28;8890;-59
2022/01/13 08:02:37;;;;;;;;;8.60;6.40;;;;;0.88;84.64;102273.72;5081263;28;9151;-59
2022/01/13 08:05:06;;;;;;;;;5.80;5.20;;;;;0.89;84.77;102270.22;5077887;28;9240;-60
2022/01/13 08:07:34;;;;;;;;;6.80;6.60;;;;;0.91;85.05;102271.06;5081377;28;9585;-59
2022/01/13 08:10:02;;;;;;;;;10.00;6.60;;;;;0.94;84.69;102275.44;5078210;28;8882;-59
2022/01/13 08:12:29;;;;;;;;;8.20;8.20;;;;;0.97;84.91;102270.19;5082001;28;8840;-59
2022/01/13 08:14:57;;;;;;;;;6.80;4.80;;;;;1.01;84.75;102269.31;5082445;28;9648;-60
2022/01/13 08:20:10;;;;;;;;;3.20;3.00;;;;;1.09;84.42;102262.28;5081531;28;8852;-59
2022/01/13 08:22:38;;;;;;;;;9.20;9.00;;;;;1.10;84.77;102257.03;5083295;28;8866;-59
2022/01/13 08:25:08;;;;;;;;;9.60;9.00;;;;;1.12;84.42;102260.50;5083182;28;8867;-60
2022/01/13 08:27:36;;;;;;;;;6.80;6.20;;;;;1.14;84.87;102260.50;5081042;28;8895;-59
2022/01/13 08:30:03;;;;;;;;;8.00;6.80;;;;;1.17;84.73;102268.34;5076014;28;8847;-59
2022/01/13 08:32:31;;;;;;;;;5.60;5.60;;;;;1.21;84.28;102263.09;5072608;28;9148;-60
2022/01/13 08:34:59;;;;;;;;;10.80;9.60;;;;;1.26;84.35;102268.31;5077858;28;8851;-59
2022/01/13 08:37:27;;;;;;;;;9.60;9.40;;;;;1.28;84.38;102261.31;5077541;28;9077;-60
2022/01/13 08:39:56;;;;;;;;;3.40;3.00;;;;;1.32;84.60;102256.06;5077784;28;8859;-60
2022/01/13 08:42:24;;;;;;;;;9.40;8.20;;;;;1.42;84.24;102268.22;5082774;28;8880;-60
2022/01/13 08:44:52;;;;;;;;;13.60;10.60;;;;;1.57;84.51;102268.16;5082936;28;9093;-59
2022/01/13 08:47:20;;;;;;;;;2.60;1.00;;;;;1.73;84.24;102267.16;5077544;28;9109;-60
2022/01/13 08:49:48;;;;;;;;;12.80;12.00;;;;;1.82;84.27;102261.00;5079993;28;8836;-60
2022/01/13 08:52:16;;;;;;;;;13.20;10.40;;;;;1.88;83.74;102259.19;5082580;28;9171;-60
2022/01/13 08:54:46;;;;;;;;;7.80;7.40;;;;;1.93;84.14;102267.91;5079371;28;9117;-60
2022/01/13 08:57:16;;;;;;;;;11.00;4.80;;;;;1.96;84.02;102265.25;5079972;28;8860;-60
2022/01/13 08:59:43;;;;;;;;;6.40;5.80;;;;;2.02;83.75;102261.69;5076732;28;8864;-60
2022/01/13 09:02:11;;;;;;;;;8.20;6.80;;;;;2.06;83.81;102264.28;5088178;28;8865;-60
2022/01/13 09:04:40;;;;;;;;;8.20;7.40;;;;;2.10;83.83;102262.50;5075951;28;8832;-60
2022/01/13 09:07:07;;;;;;;;;7.00;4.40;;;;;2.13;83.14;102265.13;5086302;28;8863;-59
2022/01/13 09:09:39;;;;;;;;;11.40;9.00;;;;;2.16;83.07;102260.72;5087070;28;8843;-59
2022/01/13 09:12:07;;;;;;;;;6.60;6.40;;;;;2.19;83.05;102268.56;5091528;28;8855;-59
2022/01/13 09:14:37;;;;;;;;;11.60;11.20;;;;;2.25;83.26;102276.41;5091139;28;8859;-59
2022/01/13 09:17:12;;;;;;;;;6.00;6.00;;;;;2.34;82.95;102286.81;5088700;28;9109;-59
2022/01/13 09:19:42;;;;;;;;;12.00;11.20;;;;;2.44;83.14;102283.22;5090109;28;8836;-59
2022/01/13 09:22:10;;;;;;;;;11.00;9.20;;;;;2.51;82.50;102284.91;5089566;28;9136;-59
2022/01/13 09:24:38;;;;;;;;;11.40;9.60;;;;;2.59;82.37;102288.34;5090546;28;9642;-58
2022/01/13 09:27:07;;;;;;;;;12.60;12.40;;;;;2.66;82.62;102290.03;5091627;28;8852;-59
2022/01/13 09:29:34;;;;;;;;;13.00;10.80;;;;;2.72;82.93;102279.44;5087205;28;8978;-59
2022/01/13 09:32:02;;;;;;;;;11.40;9.40;;;;;2.78;82.49;102289.03;5089785;28;8866;-59
2022/01/13 09:34:30;;;;;;;;;8.80;6.00;;;;;2.85;82.14;102286.31;5092836;28;8863;-58
2022/01/13 09:36:58;;;;;;;;;5.60;5.60;;;;;2.92;82.09;102282.75;5091521;28;8872;-59
2022/01/13 09:39:25;;;;;;;;;5.80;3.80;;;;;2.99;81.94;102284.41;5089952;28;9136;-59
2022/01/13 09:41:53;;;;;;;;;14.20;12.60;;;;;3.06;81.79;102286.09;5088486;28;8859;-59
2022/01/13 09:44:21;;;;;;;;;13.00;11.40;;;;;3.14;82.18;102286.00;5088570;28;8994;-59
2022/01/13 09:46:49;;;;;;;;;9.40;8.60;;;;;3.27;81.97;102295.50;5088344;28;8882;-59
2022/01/13 09:49:17;;;;;;;;;10.40;7.00;;;;;3.37;81.38;102295.34;5085198;28;8867;-60
2022/01/13 09:51:45;;;;;;;;;10.00;8.60;;;;;3.48;81.80;102296.06;5086282;28;9615;-59
2022/01/13 09:54:13;;;;;;;;;12.60;11.80;;;;;3.62;81.66;102286.22;5085816;28;8971;-59
2022/01/13 09:56:43;;;;;;;;;9.00;7.80;;;;;3.76;80.95;102286.91;5085224;28;9185;-60
2022/01/13 09:59:11;;;;;;;;;10.60;8.80;;;;;3.92;80.23;102284.03;5085339;28;8851;-60
2022/01/13 10:01:38;;;;;;;;;15.20;13.00;;;;;4.10;80.07;102281.09;5085441;28;8835;-60
2022/01/13 10:04:07;;;;;;;;;7.80;7.80;;;;;4.30;79.93;102289.56;5085286;28;8935;-60
2022/01/13 10:06:34;;;;;;;;;9.00;9.00;;;;;4.53;79.64;102283.88;5085033;28;9136;-60
2022/01/13 10:09:02;;;;;;;;;6.60;5.20;;;;;4.82;79.22;102286.88;5088147;28;8856;-60
2022/01/13 10:11:32;;;;;;;;;11.60;9.00;;;;;5.27;78.31;102283.34;5083942;28;9183;-60
2022/01/13 10:14:00;;;;;;;;;6.60;6.40;;;;;5.96;76.86;102280.06;5086586;28;9497;-60
2022/01/13 10:16:28;;;;;;;;;7.20;5.80;;;;;6.64;75.74;102283.63;5084793;28;9101;-60
2022/01/13 10:18:58;;;;;;;;;8.20;6.80;;;;;7.37;74.49;102283.34;5086706;28;8981;-60
2022/01/13 10:21:27;;;;;;;;;13.20;9.40;;;;;8.29;72.46;102276.91;5081887;28;8867;-60
2022/01/13 10:23:55;;;;;;;;;7.00;6.00;;;;;9.14;71.22;102268.56;5084371;28;8840;-60
2022/01/13 10:26:23;;;;;;;;;9.20;9.00;;;;;9.88;70.16;102261.22;5084695;28;8843;-61
2022/01/13 10:28:50;;;;;;;;;5.00;4.00;;;;;10.64;68.89;102254.53;5082185;28;9158;-61
2022/01/13 10:31:18;;;;;;;;;3.00;1.00;;;;;11.24;68.12;102250.94;5078962;28;9250;-60
2022/01/13 10:33:48;;;;;;;;;7.00;6.75;;;;;11.46;67.70;102239.19;5086114;28;9274;-60
2022/01/13 10:36:16;;;;;;;;;7.00;7.00;;;;;11.67;67.88;102237.38;5080281;28;8891;-60
2022/01/13 10:38:44;;;;;;;;;7.50;7.50;;;;;11.90;67.84;102239.81;5082428;28;8878;-60
2022/01/13 10:41:12;;;;;;;;;9.00;8.50;;;;;12.18;67.62;102236.59;5085602;28;8852;-61
2022/01/13 10:43:39;;;;;;;;;9.00;8.50;;;;;12.50;66.92;102240.28;5084772;28;9236;-60
2022/01/13 10:46:07;;;;;;;;;11.50;9.25;;;;;12.83;66.29;102223.38;5088050;28;9382;-60
2022/01/13 10:48:37;;;;;;;;;9.50;7.50;;;;;13.10;65.56;102221.09;5082912;28;9001;-60
2022/01/13 10:51:07;;;;;;;;;7.50;6.50;;;;;13.41;65.67;102226.50;5082592;28;9198;-60
2022/01/13 10:53:34;;;;;;;;;6.25;6.25;;;;;13.64;65.13;102226.09;5085352;28;8843;-60
2022/01/13 10:56:04;;;;;;;;;10.25;8.50;;;;;13.84;65.20;102221.38;5088501;28;9214;-60
2022/01/13 10:58:32;;;;;;;;;11.50;10.00;;;;;13.93;64.79;102214.59;5089211;28;8883;-60
2022/01/13 11:01:00;;;;;;;;;11.00;9.25;;;;;14.03;65.44;102205.94;5089953;28;8880;-60
2022/01/13 11:03:28;;;;;;;;;11.00;11.00;;;;;14.27;64.78;102209.06;5091308;28;8847;-60
2022/01/13 11:05:56;;;;;;;;;13.50;10.50;;;;;14.19;65.02;102209.50;5089198;28;8886;-60
2022/01/13 11:08:23;;;;;;;;;8.75;7.00;;;;;14.13;65.18;102212.50;5085943;28;8881;-60
2022/01/13 11:10:51;;;;;;;;;13.00;11.00;;;;;13.86;65.82;102211.41;5088895;28;8844;-60
2022/01/13 11:13:19;;;;;;;;;5.50;5.50;;;;;13.52;66.90;102202.69;5089883;28;8870;-59
2022/01/13 11:15:50;;;;;;;;;9.75;9.50;;;;;13.30;67.12;102207.50;5092098;28;8855;-60
2022/01/13 11:18:19;;;;;;;;;14.00;11.00;;;;;13.12;67.49;102211.16;5094888;28;8844;-60
2022/01/13 11:20:47;;;;;;;;;12.50;11.00;;;;;12.96;68.35;102203.09;5092790;28;8863;-60
2022/01/13 11:23:15;;;;;;;;;7.00;6.75;;;;;12.85;68.49;102204.59;5090971;28;8874;-60
2022/01/13 11:25:43;;;;;;;;;13.50;12.00;;;;;12.73;68.58;102194.53;5086770;28;9014;-60
2022/01/13 11:28:10;;;;;;;;;12.75;12.25;;;;;12.64;69.05;102193.22;5087881;28;9150;-60
2022/01/13 11:30:38;;;;;;;;;9.75;9.25;;;;;12.75;68.25;102187.31;5090073;28;9366;-60
2022/01/13 11:33:06;;;;;;;;;10.00;10.00;;;;;12.92;67.61;102185.44;5087640;28;9131;-60
2022/01/13 11:35:34;;;;;;;;;9.75;9.50;;;;;13.13;68.29;102178.97;5087911;28;9165;-60
2022/01/13 11:38:01;;;;;;;;;13.00;12.50;;;;;13.19;67.72;102173.28;5085537;28;8836;-60
2022/01/13 11:40:30;;;;;;;;;7.00;7.00;;;;;13.08;67.02;102164.97;5091820;28;8851;-60
2022/01/13 11:42:58;;;;;;;;;12.00;9.75;;;;;13.10;67.14;102167.59;5089768;28;9171;-60
2022/01/13 11:45:26;;;;;;;;;9.25;7.00;;;;;13.20;67.18;102164.31;5088178;28;8855;-60
2022/01/13 11:47:54;;;;;;;;;8.00;7.75;;;;;13.33;66.55;102159.16;5085063;28;8844;-60
2022/01/13 11:50:30;;;;;;;;;3.25;2.50;;;;;13.35;66.75;102152.78;5085819;28;8844;-60
2022/01/13 11:52:58;;;;;;;;;6.00;5.50;;;;;13.44;66.52;102152.25;5090816;28;8889;-60